Time;durP1;ratioP1;P1;durP2;ratioP2;P2;SDS_P1;SDS_P2;PMS_P1;PMS_P2;Temp;Humidity;BMP_temperature;BMP_pressure;BME280_temperature;BME280_humidity;BME280_pressure;Samples;Min_cycle;Max_cycle;Signal;HPM_P1;HPM_P2
2021/08/13 00:00:35;;;;;;;6.53;4.40;;;;;;;;;;5051772;28;20350;-83
2021/08/13 00:03:01;;;;;;;5.83;4.47;;;;;;;;;;5053997;28;20710;-83
2021/08/13 00:05:26;;;;;;;5.13;4.63;;;;;;;;;;5053701;28;20267;-83
2021/08/13 00:07:53;;;;;;;6.95;4.60;;;;;;;;;;5054250;28;20370;-82
2021/08/13 00:10:19;;;;;;;4.38;3.97;;;;;;;;;;5036595;28;20032;-82
2021/08/13 00:12:44;;;;;;;4.23;3.83;;;;;;;;;;5054213;28;20031;-82
2021/08/13 00:15:09;;;;;;;5.30;4.50;;;;;;;;;;5068038;28;20271;-82
2021/08/13 00:17:35;;;;;;;4.72;4.20;;;;;;;;;;5056162;28;20251;-82
2021/08/13 00:20:00;;;;;;;4.90;4.40;;;;;;;;;;5048233;28;20025;-82
2021/08/13 00:22:25;;;;;;;4.93;4.43;;;;;;;;;;5033555;28;20013;-82
2021/08/13 00:24:51;;;;;;;5.80;4.47;;;;;;;;;;5034049;28;20100;-81
2021/08/13 00:27:16;;;;;;;4.75;4.20;;;;;;;;;;5033394;28;20355;-81
2021/08/13 00:29:41;;;;;;;5.35;4.68;;;;;;;;;;5033599;28;20056;-81
2021/08/13 00:32:09;;;;;;;5.03;4.53;;;;;;;;;;5040889;28;20087;-81
2021/08/13 00:34:35;;;;;;;4.80;4.30;;;;;;;;;;5047773;28;20282;-81
2021/08/13 00:37:00;;;;;;;5.03;4.22;;;;;;;;;;5053470;28;20021;-80
2021/08/13 00:39:25;;;;;;;5.40;4.53;;;;;;;;;;5051939;28;20028;-79
2021/08/13 00:41:50;;;;;;;4.73;4.23;;;;;;;;;;5033657;28;20056;-79
2021/08/13 00:44:15;;;;;;;5.13;4.65;;;;;;;;;;5033699;28;20252;-79
2021/08/13 00:46:43;;;;;;;6.00;4.50;;;;;;;;;;5033801;28;20032;-79
2021/08/13 00:49:08;;;;;;;5.53;4.82;;;;;;;;;;5046815;28;20040;-79
2021/08/13 00:51:36;;;;;;;5.63;4.40;;;;;;;;;;5073652;28;20032;-79
2021/08/13 00:54:01;;;;;;;5.40;4.72;;;;;;;;;;5055008;28;20413;-79
2021/08/13 00:56:26;;;;;;;6.75;4.95;;;;;;;;;;5073477;28;20017;-81
2021/08/13 00:58:52;;;;;;;5.53;4.17;;;;;;;;;;5061928;28;20013;-81
2021/08/13 01:01:17;;;;;;;5.13;4.32;;;;;;;;;;5052598;28;20267;-81
2021/08/13 01:03:45;;;;;;;5.13;4.15;;;;;;;;;;5071732;28;20027;-81
2021/08/13 01:06:13;;;;;;;6.85;4.30;;;;;;;;;;5042768;28;20029;-81
2021/08/13 01:08:39;;;;;;;4.68;4.13;;;;;;;;;;5052758;28;20031;-81
2021/08/13 01:11:16;;;;;;;4.45;4.05;;;;;;;;;;5048811;28;20025;-81
2021/08/13 01:13:51;;;;;;;4.78;4.20;;;;;;;;;;5050383;28;20021;-82
2021/08/13 01:16:16;;;;;;;4.47;4.07;;;;;;;;;;5052987;28;20013;-81
2021/08/13 01:18:45;;;;;;;5.20;4.30;;;;;;;;;;5052494;28;20040;-81
2021/08/13 01:21:13;;;;;;;5.28;4.28;;;;;;;;;;5053248;28;20017;-81
2021/08/13 01:23:46;;;;;;;5.95;4.47;;;;;;;;;;5035728;28;20017;-81
2021/08/13 01:26:12;;;;;;;7.15;4.18;;;;;;;;;;5047795;28;20089;-82
2021/08/13 01:28:56;;;;;;;4.80;4.32;;;;;;;;;;5033511;28;20105;-82
2021/08/13 01:31:22;;;;;;;6.22;4.47;;;;;;;;;;5033125;28;20021;-82
2021/08/13 01:33:52;;;;;;;5.63;4.40;;;;;;;;;;5033427;28;20095;-81
2021/08/13 01:36:18;;;;;;;5.25;4.70;;;;;;;;;;5047395;28;20052;-81
2021/08/13 01:38:43;;;;;;;7.60;4.95;;;;;;;;;;5033105;28;20053;-82
2021/08/13 01:41:13;;;;;;;5.13;4.23;;;;;;;;;;5052658;28;20076;-81
2021/08/13 01:43:39;;;;;;;6.30;4.75;;;;;;;;;;5065905;28;20295;-82
2021/08/13 01:46:05;;;;;;;4.72;4.32;;;;;;;;;;5052801;28;20355;-81
2021/08/13 01:48:32;;;;;;;4.97;4.47;;;;;;;;;;5052981;28;20017;-81
2021/08/13 01:50:57;;;;;;;4.85;4.40;;;;;;;;;;5055419;28;20032;-81
2021/08/13 01:53:23;;;;;;;5.90;4.80;;;;;;;;;;5036540;28;20422;-80
2021/08/13 01:55:49;;;;;;;4.63;4.22;;;;;;;;;;5036424;28;20029;-80
2021/08/13 01:58:15;;;;;;;5.40;4.90;;;;;;;;;;5036497;28;20028;-80
2021/08/13 02:00:41;;;;;;;5.20;4.53;;;;;;;;;;5023492;28;20068;-81
2021/08/13 02:03:07;;;;;;;5.18;4.47;;;;;;;;;;5036356;28;20045;-82
2021/08/13 02:05:33;;;;;;;6.43;4.15;;;;;;;;;;5030322;28;20518;-82
2021/08/13 02:07:59;;;;;;;4.85;4.45;;;;;;;;;;5056659;28;20029;-81
2021/08/13 02:10:27;;;;;;;4.65;4.00;;;;;;;;;;5056449;28;20017;-80
2021/08/13 02:12:52;;;;;;;4.57;4.05;;;;;;;;;;5056589;28;20071;-80
2021/08/13 02:15:17;;;;;;;4.70;4.30;;;;;;;;;;5037164;28;20091;-79
2021/08/13 02:17:58;;;;;;;5.18;4.68;;;;;;;;;;5036387;28;20103;-79
2021/08/13 02:20:29;;;;;;;4.70;4.20;;;;;;;;;;5036456;28;20013;-79
2021/08/13 02:22:54;;;;;;;5.90;4.32;;;;;;;;;;5043882;28;20025;-80
2021/08/13 02:25:22;;;;;;;4.90;4.45;;;;;;;;;;5056091;28;20021;-80
2021/08/13 02:27:47;;;;;;;7.47;4.63;;;;;;;;;;5056268;28;20102;-80
2021/08/13 02:30:12;;;;;;;8.25;4.38;;;;;;;;;;5037810;28;20637;-80
2021/08/13 02:32:38;;;;;;;7.43;4.90;;;;;;;;;;5055840;28;20043;-80
2021/08/13 02:35:06;;;;;;;5.00;4.40;;;;;;;;;;5055826;28;20096;-80
2021/08/13 02:37:34;;;;;;;5.10;4.50;;;;;;;;;;5038821;28;20473;-80
2021/08/13 02:40:04;;;;;;;5.28;4.72;;;;;;;;;;5045902;28;20388;-80
2021/08/13 02:42:38;;;;;;;6.18;4.72;;;;;;;;;;5070033;28;20037;-80
2021/08/13 02:45:03;;;;;;;5.90;4.70;;;;;;;;;;5075806;28;20050;-80
2021/08/13 02:47:29;;;;;;;5.45;4.95;;;;;;;;;;5042829;28;20444;-80
2021/08/13 02:49:59;;;;;;;5.03;4.53;;;;;;;;;;5055762;28;20083;-80
2021/08/13 02:52:27;;;;;;;5.93;4.80;;;;;;;;;;5037361;28;20029;-80
2021/08/13 02:54:56;;;;;;;5.75;4.95;;;;;;;;;;5055719;28;20020;-80
2021/08/13 02:57:22;;;;;;;5.28;4.55;;;;;;;;;;5055625;28;20044;-80
2021/08/13 02:59:50;;;;;;;5.78;4.30;;;;;;;;;;5041118;28;20109;-80
2021/08/13 03:02:18;;;;;;;5.30;4.80;;;;;;;;;;5017423;28;20022;-80
2021/08/13 03:04:46;;;;;;;5.82;4.18;;;;;;;;;;5035616;28;20021;-80
2021/08/13 03:07:12;;;;;;;9.70;5.05;;;;;;;;;;5036453;28;20029;-80
2021/08/13 03:09:38;;;;;;;5.15;4.05;;;;;;;;;;5055214;28;20039;-80
2021/08/13 03:12:06;;;;;;;5.03;4.43;;;;;;;;;;5055285;28;20029;-80
2021/08/13 03:14:31;;;;;;;7.97;4.78;;;;;;;;;;5037838;28;20158;-80
2021/08/13 03:17:02;;;;;;;6.15;5.00;;;;;;;;;;5046662;28;20436;-80
2021/08/13 03:19:27;;;;;;;5.15;4.68;;;;;;;;;;5017993;28;20078;-81
2021/08/13 03:21:52;;;;;;;5.55;5.05;;;;;;;;;;5035258;28;20112;-80
2021/08/13 03:24:18;;;;;;;5.97;4.78;;;;;;;;;;5034648;28;20040;-80
2021/08/13 03:26:43;;;;;;;6.30;4.80;;;;;;;;;;5035242;28;20028;-80
2021/08/13 03:29:09;;;;;;;5.78;4.97;;;;;;;;;;5049480;28;20025;-80
2021/08/13 03:31:38;;;;;;;5.32;4.82;;;;;;;;;;5054885;28;20102;-80
2021/08/13 03:34:04;;;;;;;6.10;4.60;;;;;;;;;;5037415;28;20017;-79
2021/08/13 03:36:30;;;;;;;5.72;4.95;;;;;;;;;;5044001;28;20025;-79
2021/08/13 03:38:55;;;;;;;4.82;4.20;;;;;;;;;;5034848;28;20440;-80
2021/08/13 03:41:21;;;;;;;7.03;5.32;;;;;;;;;;5042385;28;20064;-79
2021/08/13 03:43:48;;;;;;;5.37;4.87;;;;;;;;;;5054635;28;20092;-81
2021/08/13 03:46:14;;;;;;;5.55;5.07;;;;;;;;;;5054616;28;20259;-80
2021/08/13 03:48:39;;;;;;;6.88;5.30;;;;;;;;;;5054680;28;20017;-80
2021/08/13 03:51:04;;;;;;;7.30;5.33;;;;;;;;;;5054185;28;20009;-81
2021/08/13 03:53:29;;;;;;;6.22;4.82;;;;;;;;;;5054270;28;20595;-80
2021/08/13 03:55:54;;;;;;;5.10;4.57;;;;;;;;;;5053806;28;20021;-80
2021/08/13 03:58:20;;;;;;;6.93;5.03;;;;;;;;;;5054687;28;20702;-80
2021/08/13 04:00:45;;;;;;;7.50;5.17;;;;;;;;;;5036073;28;20595;-80
2021/08/13 04:03:10;;;;;;;4.63;4.23;;;;;;;;;;5054151;28;20274;-80
2021/08/13 04:05:35;;;;;;;5.10;4.50;;;;;;;;;;5053995;28;20255;-81
2021/08/13 04:08:03;;;;;;;5.03;4.43;;;;;;;;;;5054410;28;20263;-81
2021/08/13 04:10:28;;;;;;;5.35;4.85;;;;;;;;;;5022331;28;20037;-81
2021/08/13 04:12:53;;;;;;;5.10;4.70;;;;;;;;;;5034212;28;20470;-81
2021/08/13 04:15:19;;;;;;;5.20;4.70;;;;;;;;;;5034442;28;20460;-81
2021/08/13 04:17:47;;;;;;;5.80;5.05;;;;;;;;;;5053384;28;20102;-81
2021/08/13 04:20:13;;;;;;;7.90;5.20;;;;;;;;;;5033658;28;20041;-81
2021/08/13 04:22:38;;;;;;;5.32;4.82;;;;;;;;;;5061532;28;20516;-81
2021/08/13 04:25:04;;;;;;;5.47;4.75;;;;;;;;;;5073966;28;20025;-81
2021/08/13 04:27:29;;;;;;;5.88;5.03;;;;;;;;;;5053409;28;20056;-81
2021/08/13 04:29:56;;;;;;;5.73;5.03;;;;;;;;;;5041662;28;20031;-81
2021/08/13 04:32:21;;;;;;;5.38;4.90;;;;;;;;;;5042384;28;20328;-81
2021/08/13 04:34:47;;;;;;;5.70;5.20;;;;;;;;;;5043589;28;20021;-81
2021/08/13 04:37:12;;;;;;;6.00;4.80;;;;;;;;;;5042133;28;20699;-81
2021/08/13 04:39:40;;;;;;;6.00;5.40;;;;;;;;;;5042136;28;20464;-81
2021/08/13 04:42:05;;;;;;;6.00;5.40;;;;;;;;;;5036410;28;20033;-82
2021/08/13 04:44:30;;;;;;;6.03;5.43;;;;;;;;;;5038159;28;20105;-81
2021/08/13 04:46:55;;;;;;;6.25;5.22;;;;;;;;;;5022755;28;20037;-81
2021/08/13 04:49:21;;;;;;;6.07;5.47;;;;;;;;;;5041059;28;20021;-81
2021/08/13 04:51:46;;;;;;;7.53;5.50;;;;;;;;;;5033438;28;20287;-91
2021/08/13 04:54:13;;;;;;;6.03;5.38;;;;;;;;;;5048946;28;20027;-87
2021/08/13 04:56:39;;;;;;;5.70;5.20;;;;;;;;;;5053533;28;20021;-87
2021/08/13 04:59:04;;;;;;;6.75;5.13;;;;;;;;;;5041051;28;20454;-86
2021/08/13 05:01:29;;;;;;;7.28;5.38;;;;;;;;;;5055105;28;20020;-89
2021/08/13 05:04:04;;;;;;;6.85;5.72;;;;;;;;;;5045608;28;20428;-89
2021/08/13 05:06:32;;;;;;;6.85;5.78;;;;;;;;;;5043327;28;20028;-90
2021/08/13 05:08:57;;;;;;;6.35;5.45;;;;;;;;;;5041683;28;20523;-89
2021/08/13 05:11:22;;;;;;;6.25;5.65;;;;;;;;;;5047563;28;20113;-90
2021/08/13 05:13:47;;;;;;;6.28;5.30;;;;;;;;;;5053587;28;20017;-90
2021/08/13 05:16:13;;;;;;;8.50;5.67;;;;;;;;;;5069096;28;20024;-89
2021/08/13 05:18:38;;;;;;;6.35;5.55;;;;;;;;;;5047549;28;20265;-91
2021/08/13 05:21:05;;;;;;;8.47;5.70;;;;;;;;;;5033573;28;20079;-89
2021/08/13 05:23:30;;;;;;;6.22;5.57;;;;;;;;;;5049251;28;20278;-91
2021/08/13 05:25:59;;;;;;;5.85;5.35;;;;;;;;;;5049358;28;20026;-90
2021/08/13 05:28:31;;;;;;;8.35;6.03;;;;;;;;;;5021626;28;20635;-85
2021/08/13 05:30:57;;;;;;;6.70;5.32;;;;;;;;;;5044477;28;20029;-84
2021/08/13 05:33:22;;;;;;;6.25;5.65;;;;;;;;;;5036787;28;20463;-82
2021/08/13 05:35:47;;;;;;;5.97;5.37;;;;;;;;;;5043797;28;20108;-83
2021/08/13 05:38:12;;;;;;;6.68;5.78;;;;;;;;;;5045698;28;20256;-88
2021/08/13 05:40:38;;;;;;;6.85;5.38;;;;;;;;;;5045097;28;20048;-84
2021/08/13 05:43:06;;;;;;;6.53;5.60;;;;;;;;;;5042228;28;20033;-84
2021/08/13 05:45:31;;;;;;;6.68;5.90;;;;;;;;;;5055372;28;20301;-89
2021/08/13 05:47:56;;;;;;;7.77;5.40;;;;;;;;;;5057315;28;20126;-86
2021/08/13 05:50:22;;;;;;;7.60;5.32;;;;;;;;;;5039243;28;20268;-85
2021/08/13 05:52:47;;;;;;;6.38;5.40;;;;;;;;;;5054847;28;20041;-82
2021/08/13 05:55:13;;;;;;;7.18;5.88;;;;;;;;;;5035726;28;20032;-82
2021/08/13 05:57:38;;;;;;;6.10;5.50;;;;;;;;;;5047820;28;20021;-82
2021/08/13 06:00:07;;;;;;;7.63;5.63;;;;;;;;;;5068024;28;20027;-82
2021/08/13 06:02:33;;;;;;;7.03;5.55;;;;;;;;;;5075829;28;20374;-82
2021/08/13 06:04:59;;;;;;;6.43;5.82;;;;;;;;;;5067921;28;20033;-82
2021/08/13 06:07:24;;;;;;;6.30;5.70;;;;;;;;;;5056322;28;20032;-81
2021/08/13 06:09:49;;;;;;;9.80;5.68;;;;;;;;;;5055652;28;20275;-81
2021/08/13 06:12:15;;;;;;;6.60;5.72;;;;;;;;;;5056167;28;20096;-82
2021/08/13 06:14:40;;;;;;;5.88;5.30;;;;;;;;;;5056058;28;20410;-81
2021/08/13 06:17:08;;;;;;;5.82;5.25;;;;;;;;;;5056310;28;20033;-82
2021/08/13 06:19:33;;;;;;;6.72;5.93;;;;;;;;;;5055640;28;20044;-82
2021/08/13 06:21:59;;;;;;;7.07;5.38;;;;;;;;;;5046902;28;20056;-81
2021/08/13 06:24:27;;;;;;;6.18;5.57;;;;;;;;;;5018020;28;20026;-82
2021/08/13 06:26:52;;;;;;;6.72;6.03;;;;;;;;;;5035924;28;20444;-82
2021/08/13 06:29:20;;;;;;;6.20;5.60;;;;;;;;;;5036147;28;20040;-82
2021/08/13 06:31:45;;;;;;;8.15;6.20;;;;;;;;;;5035952;28;20033;-82
2021/08/13 06:34:13;;;;;;;7.37;5.77;;;;;;;;;;5035714;28;20452;-82
2021/08/13 06:36:38;;;;;;;8.15;6.18;;;;;;;;;;5034732;28;20260;-82
2021/08/13 06:39:04;;;;;;;5.80;5.13;;;;;;;;;;5036175;28;20070;-82
2021/08/13 06:41:29;;;;;;;6.78;5.75;;;;;;;;;;5046277;28;20287;-82
2021/08/13 06:43:54;;;;;;;6.90;5.87;;;;;;;;;;5055864;28;20095;-82
2021/08/13 06:46:19;;;;;;;6.07;5.47;;;;;;;;;;5029060;28;20330;-82
2021/08/13 06:48:44;;;;;;;5.80;5.20;;;;;;;;;;5035549;28;20260;-82
2021/08/13 06:51:12;;;;;;;6.10;5.50;;;;;;;;;;5042187;28;20268;-82
2021/08/13 06:53:37;;;;;;;6.20;5.60;;;;;;;;;;5055339;28;20054;-82
2021/08/13 06:56:03;;;;;;;6.28;5.68;;;;;;;;;;5055662;28;20064;-81
2021/08/13 06:58:28;;;;;;;7.13;5.88;;;;;;;;;;5053464;28;20070;-81
2021/08/13 07:00:56;;;;;;;8.20;5.40;;;;;;;;;;5035703;28;20591;-81
2021/08/13 07:03:21;;;;;;;6.70;5.68;;;;;;;;;;5035630;28;20025;-81
2021/08/13 07:05:46;;;;;;;6.20;4.70;;;;;;;;;;5035592;28;20051;-83
2021/08/13 07:08:14;;;;;;;6.97;5.63;;;;;;;;;;5043163;28;20753;-83
2021/08/13 07:10:39;;;;;;;7.93;5.55;;;;;;;;;;5039005;28;20280;-83
2021/08/13 07:13:04;;;;;;;8.07;5.45;;;;;;;;;;5043890;28;20044;-83
2021/08/13 07:15:30;;;;;;;7.20;6.15;;;;;;;;;;5049697;28;20021;-83
2021/08/13 07:17:55;;;;;;;7.63;5.40;;;;;;;;;;5054952;28;20454;-83
2021/08/13 07:20:20;;;;;;;6.27;5.67;;;;;;;;;;5053716;28;20025;-83
2021/08/13 07:22:45;;;;;;;7.47;5.57;;;;;;;;;;5053908;28;20256;-83
2021/08/13 07:25:17;;;;;;;6.33;5.70;;;;;;;;;;5055130;28;20021;-83
2021/08/13 07:27:42;;;;;;;6.32;5.72;;;;;;;;;;5054332;28;20025;-83
2021/08/13 07:30:08;;;;;;;6.60;6.00;;;;;;;;;;5055224;28;20036;-84
2021/08/13 07:32:36;;;;;;;6.47;5.85;;;;;;;;;;5065131;28;20275;-83
2021/08/13 07:35:01;;;;;;;6.88;6.18;;;;;;;;;;5054772;28;20083;-84
2021/08/13 07:37:29;;;;;;;5.82;5.25;;;;;;;;;;5047396;28;20397;-83
2021/08/13 07:39:56;;;;;;;7.97;5.78;;;;;;;;;;5034584;28;20435;-83
2021/08/13 07:42:26;;;;;;;6.93;5.70;;;;;;;;;;5017050;28;20024;-83
2021/08/13 07:44:51;;;;;;;8.07;5.93;;;;;;;;;;5034472;28;20017;-84
2021/08/13 07:47:19;;;;;;;8.25;6.28;;;;;;;;;;5037571;28;20021;-84
2021/08/13 07:49:44;;;;;;;8.35;5.82;;;;;;;;;;5054114;28;20094;-84
2021/08/13 07:52:09;;;;;;;6.88;5.85;;;;;;;;;;5036314;28;20024;-84
2021/08/13 07:54:34;;;;;;;5.88;5.03;;;;;;;;;;5018350;28;20359;-83
2021/08/13 07:57:02;;;;;;;10.93;6.97;;;;;;;;;;5034557;28;20341;-84
2021/08/13 07:59:28;;;;;;;7.28;6.10;;;;;;;;;;5022882;28;20021;-82
2021/08/13 08:01:55;;;;;;;7.97;6.05;;;;;;;;;;5036664;28;20033;-84
2021/08/13 08:04:23;;;;;;;8.00;5.82;;;;;;;;;;5054202;28;20047;-83
2021/08/13 08:06:55;;;;;;;6.90;6.07;;;;;;;;;;5054308;28;20099;-84
2021/08/13 08:09:20;;;;;;;9.80;6.70;;;;;;;;;;5068387;28;20021;-83
2021/08/13 08:11:48;;;;;;;7.97;6.60;;;;;;;;;;5059378;28;20289;-83
2021/08/13 08:14:13;;;;;;;9.40;6.65;;;;;;;;;;5053811;28;20263;-83
2021/08/13 08:16:38;;;;;;;8.40;6.70;;;;;;;;;;5044141;28;20017;-83
2021/08/13 08:19:06;;;;;;;6.93;6.23;;;;;;;;;;5034062;28;20314;-84
2021/08/13 08:21:33;;;;;;;7.28;6.00;;;;;;;;;;5054427;28;20316;-83
2021/08/13 08:23:58;;;;;;;8.07;6.28;;;;;;;;;;5073774;28;20016;-84
2021/08/13 08:26:24;;;;;;;7.97;7.10;;;;;;;;;;5049871;28;20088;-83
2021/08/13 08:28:52;;;;;;;12.45;8.00;;;;;;;;;;5034000;28;20343;-84
2021/08/13 08:31:17;;;;;;;11.95;9.88;;;;;;;;;;5042604;28;20012;-83
2021/08/13 08:33:42;;;;;;;9.88;7.72;;;;;;;;;;5067562;28;20039;-84
2021/08/13 08:36:08;;;;;;;7.68;6.85;;;;;;;;;;5048711;28;20107;-85
2021/08/13 08:38:34;;;;;;;8.82;7.78;;;;;;;;;;5053687;28;20459;-85
2021/08/13 08:41:03;;;;;;;9.60;7.63;;;;;;;;;;5053195;28;20041;-85
2021/08/13 08:43:29;;;;;;;9.50;8.18;;;;;;;;;;5053338;28;20021;-84
2021/08/13 08:45:55;;;;;;;11.80;8.73;;;;;;;;;;5033511;28;20130;-85
2021/08/13 08:48:20;;;;;;;11.15;9.15;;;;;;;;;;5051572;28;20104;-85
2021/08/13 08:50:48;;;;;;;15.48;8.65;;;;;;;;;;5048679;28;20029;-85
2021/08/13 08:53:18;;;;;;;13.07;11.30;;;;;;;;;;5036350;28;20025;-85
2021/08/13 08:55:43;;;;;;;14.07;10.43;;;;;;;;;;5033099;28;20014;-85
2021/08/13 08:58:09;;;;;;;11.35;8.88;;;;;;;;;;5049147;28;20085;-78
2021/08/13 09:00:37;;;;;;;9.20;8.15;;;;;;;;;;5045760;28;20017;-77
2021/08/13 09:03:04;;;;;;;16.70;11.02;;;;;;;;;;5033183;28;20026;-76
2021/08/13 09:05:31;;;;;;;13.20;11.32;;;;;;;;;;5044215;28;20028;-77
2021/08/13 09:07:59;;;;;;;15.52;11.38;;;;;;;;;;5053184;28;20028;-77
2021/08/13 09:10:24;;;;;;;14.65;11.30;;;;;;;;;;5025446;28;20029;-77
2021/08/13 09:12:52;;;;;;;18.17;13.93;;;;;;;;;;5046699;28;20366;-77
2021/08/13 09:15:24;;;;;;;16.55;14.07;;;;;;;;;;5046957;28;20023;-76
2021/08/13 09:18:08;;;;;;;15.65;12.35;;;;;;;;;;5033629;28;20402;-78
2021/08/13 09:20:37;;;;;;;22.27;17.63;;;;;;;;;;5033180;28;20021;-78
2021/08/13 09:23:02;;;;;;;17.58;14.07;;;;;;;;;;5038567;28;20108;-77
2021/08/13 09:25:27;;;;;;;12.57;11.25;;;;;;;;;;5052885;28;20113;-77
2021/08/13 09:27:54;;;;;;;10.35;8.95;;;;;;;;;;5051962;28;20033;-77
2021/08/13 09:30:19;;;;;;;11.63;9.30;;;;;;;;;;5053007;28;20024;-77
2021/08/13 09:32:57;;;;;;;12.63;9.75;;;;;;;;;;5045925;28;20351;-77
2021/08/13 09:35:32;;;;;;;13.05;10.15;;;;;;;;;;5073037;28;20024;-77
2021/08/13 09:38:00;;;;;;;12.52;10.68;;;;;;;;;;5069586;28;21818;-77
2021/08/13 09:40:25;;;;;;;13.82;10.82;;;;;;;;;;5053092;28;20047;-77
2021/08/13 09:42:59;;;;;;;9.68;8.68;;;;;;;;;;5052784;28;20116;-78
2021/08/13 09:45:24;;;;;;;10.20;9.13;;;;;;;;;;5051616;28;20056;-76
2021/08/13 09:47:49;;;;;;;13.70;10.68;;;;;;;;;;5026634;28;20060;-76
2021/08/13 09:50:16;;;;;;;24.40;14.10;;;;;;;;;;5032973;28;20044;-78
2021/08/13 09:52:42;;;;;;;17.42;13.25;;;;;;;;;;5038646;28;20283;-81
2021/08/13 09:55:15;;;;;;;19.15;14.70;;;;;;;;;;5053125;28;20352;-79
2021/08/13 09:57:44;;;;;;;18.05;14.57;;;;;;;;;;5045398;28;20098;-82
2021/08/13 10:00:12;;;;;;;19.13;13.45;;;;;;;;;;5041176;28;20021;-81
2021/08/13 10:02:40;;;;;;;19.33;12.77;;;;;;;;;;5038166;28;20036;-82
2021/08/13 10:05:19;;;;;;;15.77;13.82;;;;;;;;;;5029681;28;20590;-82
2021/08/13 10:07:45;;;;;;;19.67;12.55;;;;;;;;;;5043054;28;20364;-82
2021/08/13 10:10:27;;;;;;;16.63;11.95;;;;;;;;;;5039580;28;20021;-82
2021/08/13 10:12:55;;;;;;;16.63;12.27;;;;;;;;;;5018722;28;20022;-84
2021/08/13 10:25:00;;;;;;;17.00;15.13;;;;;;;;;;5036572;28;20116;-80
2021/08/13 10:30:53;;;;;;;14.27;11.60;;;;;;;;;;5054028;28;20027;-88
2021/08/13 10:33:33;;;;;;;15.63;10.55;;;;;;;;;;5055800;28;20024;-90
2021/08/13 10:39:09;;;;;;;15.73;12.05;;;;;;;;;;5061355;28;20104;-89
2021/08/13 10:41:39;;;;;;;12.82;10.95;;;;;;;;;;5027578;28;20041;-90
2021/08/13 10:47:42;;;;;;;16.38;12.40;;;;;;;;;;5023778;28;20372;-94
2021/08/13 11:05:49;;;;;;;11.32;8.75;;;;;;;;;;4963278;28;20050;-88
2021/08/13 11:08:15;;;;;;;13.02;7.60;;;;;;;;;;5023580;28;20053;-89
2021/08/13 11:10:43;;;;;;;9.95;7.28;;;;;;;;;;5022239;28;20053;-88
2021/08/13 11:13:09;;;;;;;9.68;7.70;;;;;;;;;;5015453;28;20038;-89
2021/08/13 11:15:35;;;;;;;12.70;10.48;;;;;;;;;;5023983;28;20084;-89
2021/08/13 11:18:00;;;;;;;11.38;10.00;;;;;;;;;;5031686;28;20571;-89
2021/08/13 11:20:40;;;;;;;9.55;6.78;;;;;;;;;;5023841;28;20013;-88
2021/08/13 11:23:07;;;;;;;11.38;9.13;;;;;;;;;;5018664;28;20024;-88
2021/08/13 11:25:46;;;;;;;14.38;8.10;;;;;;;;;;5025427;28;20028;-89
2021/08/13 11:28:30;;;;;;;12.50;8.52;;;;;;;;;;5027075;28;20033;-82
2021/08/13 11:48:31;;;;;;;7.70;5.68;;;;;;;;;;5082343;23;20042;-82
2021/08/13 11:51:04;;;;;;;9.10;4.35;;;;;;;;;;4995133;28;20034;-85
2021/08/13 11:53:36;;;;;;;4.78;4.10;;;;;;;;;;4994759;28;20038;-84
2021/08/13 11:56:02;;;;;;;6.05;5.15;;;;;;;;;;4994594;28;20026;-84
2021/08/13 11:58:27;;;;;;;6.87;4.63;;;;;;;;;;4994637;28;20084;-83
2021/08/13 12:01:02;;;;;;;5.73;4.37;;;;;;;;;;4993208;28;20033;-82
2021/08/13 12:03:28;;;;;;;6.13;4.30;;;;;;;;;;4993462;28;20754;-80
2021/08/13 12:05:53;;;;;;;6.43;4.35;;;;;;;;;;4993965;28;20085;-90
2021/08/13 12:08:18;;;;;;;8.02;5.25;;;;;;;;;;4994022;28;20022;-90
2021/08/13 12:10:48;;;;;;;6.23;4.37;;;;;;;;;;4994068;28;20022;-88
2021/08/13 12:13:13;;;;;;;8.93;4.82;;;;;;;;;;4994175;28;20029;-89
2021/08/13 12:15:40;;;;;;;7.07;4.30;;;;;;;;;;4994339;28;20564;-82
2021/08/13 12:18:06;;;;;;;6.95;4.10;;;;;;;;;;4994263;28;20026;-82
2021/08/13 12:20:34;;;;;;;4.13;3.38;;;;;;;;;;4993308;28;20363;-82
2021/08/13 12:23:01;;;;;;;6.18;3.60;;;;;;;;;;4993658;28;20022;-82
2021/08/13 12:25:30;;;;;;;4.47;3.40;;;;;;;;;;4993080;28;20364;-82
2021/08/13 12:27:55;;;;;;;5.75;3.58;;;;;;;;;;4993494;28;20026;-84
2021/08/13 12:30:21;;;;;;;4.87;3.83;;;;;;;;;;4993758;28;20440;-92
2021/08/13 12:32:47;;;;;;;3.42;3.10;;;;;;;;;;4993918;28;20033;-87
2021/08/13 12:35:15;;;;;;;4.93;2.92;;;;;;;;;;4992785;28;20022;-85
2021/08/13 12:37:41;;;;;;;5.00;3.22;;;;;;;;;;4992562;28;20448;-90
2021/08/13 12:40:10;;;;;;;4.05;2.88;;;;;;;;;;4992544;28;20037;-85
2021/08/13 12:42:36;;;;;;;3.40;3.00;;;;;;;;;;4990765;28;20018;-85
2021/08/13 12:45:06;;;;;;;4.38;2.83;;;;;;;;;;4991098;28;20034;-90
2021/08/13 12:47:33;;;;;;;3.88;2.60;;;;;;;;;;4994058;28;20488;-85
2021/08/13 12:50:01;;;;;;;3.17;2.70;;;;;;;;;;4994188;28;20082;-85
2021/08/13 12:52:29;;;;;;;3.83;2.63;;;;;;;;;;4994140;28;20080;-84
2021/08/13 12:54:55;;;;;;;4.07;2.58;;;;;;;;;;4994430;28;20026;-84
2021/08/13 12:57:21;;;;;;;2.50;2.25;;;;;;;;;;4994259;28;20022;-84
2021/08/13 12:59:49;;;;;;;5.25;2.70;;;;;;;;;;4994604;28;20415;-84
2021/08/13 13:02:22;;;;;;;2.55;2.22;;;;;;;;;;4992805;28;20054;-84
2021/08/13 13:04:47;;;;;;;2.58;2.33;;;;;;;;;;4994223;28;20061;-84
2021/08/13 13:07:16;;;;;;;5.38;2.40;;;;;;;;;;4994076;28;20054;-84
2021/08/13 13:09:42;;;;;;;2.45;1.92;;;;;;;;;;4994191;28;20022;-84
2021/08/13 13:12:26;;;;;;;2.50;2.30;;;;;;;;;;4994095;28;20367;-84
2021/08/13 13:15:03;;;;;;;4.22;2.30;;;;;;;;;;4993867;28;20041;-87
2021/08/13 13:17:31;;;;;;;5.68;2.17;;;;;;;;;;4993075;28;20403;-86
2021/08/13 13:20:12;;;;;;;4.00;2.42;;;;;;;;;;4993990;28;20363;-86
2021/08/13 13:22:41;;;;;;;3.10;2.50;;;;;;;;;;4990403;28;20023;-86
2021/08/13 13:25:18;;;;;;;5.82;2.53;;;;;;;;;;4993505;28;20026;-92
2021/08/13 13:27:50;;;;;;;3.40;2.40;;;;;;;;;;4993811;28;20037;-91
2021/08/13 13:30:34;;;;;;;4.75;2.60;;;;;;;;;;4992955;28;20423;-91
2021/08/13 13:33:07;;;;;;;3.00;2.15;;;;;;;;;;4993387;28;20097;-85
2021/08/13 13:35:34;;;;;;;5.00;2.20;;;;;;;;;;4993686;28;20516;-91
2021/08/13 13:38:00;;;;;;;3.08;2.20;;;;;;;;;;4993636;28;20028;-85
2021/08/13 13:40:26;;;;;;;3.13;2.28;;;;;;;;;;4993494;28;20467;-88
2021/08/13 13:42:51;;;;;;;3.08;2.13;;;;;;;;;;4993634;28;20023;-87
2021/08/13 13:45:18;;;;;;;2.23;1.97;;;;;;;;;;4993796;28;20110;-86
2021/08/13 13:47:43;;;;;;;5.32;2.20;;;;;;;;;;4997010;28;20065;-85
2021/08/13 13:50:11;;;;;;;2.30;2.00;;;;;;;;;;4997575;28;20022;-88
2021/08/13 13:52:36;;;;;;;2.35;1.85;;;;;;;;;;4997465;28;20376;-85
2021/08/13 13:55:02;;;;;;;2.08;1.77;;;;;;;;;;4993033;28;20113;-86
2021/08/13 13:57:28;;;;;;;1.90;1.70;;;;;;;;;;4997126;28;20050;-86
2021/08/13 13:59:56;;;;;;;2.25;1.55;;;;;;;;;;4996378;28;20014;-84
2021/08/13 14:02:21;;;;;;;2.08;1.80;;;;;;;;;;4996222;28;20057;-82
2021/08/13 14:04:50;;;;;;;2.37;1.60;;;;;;;;;;4997334;28;20030;-83
2021/08/13 14:07:15;;;;;;;2.28;1.58;;;;;;;;;;4997197;28;20280;-82
2021/08/13 14:09:40;;;;;;;1.57;1.33;;;;;;;;;;4996790;28;20026;-85
2021/08/13 14:12:05;;;;;;;2.30;1.50;;;;;;;;;;4997181;28;20030;-89
2021/08/13 14:14:34;;;;;;;3.22;1.40;;;;;;;;;;4996412;28;20030;-91
2021/08/13 14:17:00;;;;;;;3.60;1.67;;;;;;;;;;4997156;28;20029;-88
2021/08/13 14:19:25;;;;;;;2.17;1.33;;;;;;;;;;4996939;28;20096;-88
2021/08/13 14:21:50;;;;;;;2.20;1.40;;;;;;;;;;4996600;28;20101;-87
2021/08/13 14:24:17;;;;;;;2.50;1.37;;;;;;;;;;4995876;28;20014;-82
2021/08/13 14:26:42;;;;;;;6.55;1.90;;;;;;;;;;4996240;28;20437;-88
2021/08/13 14:29:08;;;;;;;1.40;1.30;;;;;;;;;;4996893;28;20073;-85
2021/08/13 14:31:33;;;;;;;2.23;1.30;;;;;;;;;;4996458;28;20257;-87
2021/08/13 14:33:58;;;;;;;1.20;1.10;;;;;;;;;;4995479;28;20089;-90
2021/08/13 14:36:27;;;;;;;2.45;1.20;;;;;;;;;;4995875;28;20038;-88
2021/08/13 14:38:52;;;;;;;2.15;1.13;;;;;;;;;;4995412;28;20054;-83
2021/08/13 14:41:20;;;;;;;2.80;1.20;;;;;;;;;;4992411;28;20060;-83
2021/08/13 14:43:46;;;;;;;4.32;1.30;;;;;;;;;;4984978;28;20019;-84
2021/08/13 14:46:11;;;;;;;1.48;1.10;;;;;;;;;;4988770;28;20080;-80
2021/08/13 14:48:37;;;;;;;1.95;1.27;;;;;;;;;;4996293;28;20045;-88
2021/08/13 14:51:02;;;;;;;2.15;1.38;;;;;;;;;;4993579;28;20077;-90
2021/08/13 14:53:27;;;;;;;1.27;1.17;;;;;;;;;;4986905;28;20344;-87
2021/08/13 14:55:53;;;;;;;2.70;1.30;;;;;;;;;;4995461;28;20476;-88
2021/08/13 14:58:18;;;;;;;2.95;1.35;;;;;;;;;;4994818;28;20415;-89
2021/08/13 15:00:43;;;;;;;2.00;1.30;;;;;;;;;;4995393;28;20025;-89
2021/08/13 15:03:08;;;;;;;1.93;1.10;;;;;;;;;;4994916;28;20026;-89
2021/08/13 15:05:34;;;;;;;1.75;1.23;;;;;;;;;;4995306;28;20022;-86
2021/08/13 15:07:59;;;;;;;1.65;1.30;;;;;;;;;;4994544;28;20026;-86
2021/08/13 15:10:25;;;;;;;1.20;1.10;;;;;;;;;;4985558;28;20460;-85
2021/08/13 15:12:50;;;;;;;1.05;0.95;;;;;;;;;;4989504;28;20027;-84
2021/08/13 15:15:15;;;;;;;1.77;0.90;;;;;;;;;;4993691;28;20022;-86
2021/08/13 15:17:40;;;;;;;1.70;0.93;;;;;;;;;;4995990;28;20257;-86
2021/08/13 15:20:06;;;;;;;1.50;1.03;;;;;;;;;;4995916;28;20055;-86
2021/08/13 15:22:31;;;;;;;1.48;1.10;;;;;;;;;;4994540;28;20022;-89
2021/08/13 15:24:56;;;;;;;1.47;1.00;;;;;;;;;;4976117;28;20038;-87
2021/08/13 15:27:22;;;;;;;1.27;1.03;;;;;;;;;;4976276;28;20030;-86
2021/08/13 15:29:47;;;;;;;3.13;1.30;;;;;;;;;;4995092;28;20040;-88
2021/08/13 15:32:12;;;;;;;1.10;1.00;;;;;;;;;;4995584;28;20044;-87